Time;durP1;ratioP1;P1;durP2;ratioP2;P2;SDS_P1;SDS_P2;PMS_P1;PMS_P2;Temp;Humidity;BMP_temperature;BMP_pressure;BME280_temperature;BME280_humidity;BME280_pressure;Samples;Min_cycle;Max_cycle;Signal;HPM_P1;HPM_P2
2024/01/20 00:03:46;;;;;;;60.13;43.10;;;;;;;21.80;43.77;101472.09;31621643;28;20232;-39
2024/01/20 00:18:49;;;;;;;55.03;38.40;;;;;;;21.74;43.34;101453.56;31605203;28;20580;-43
2024/01/20 00:33:52;;;;;;;49.35;34.42;;;;;;;21.74;43.36;101459.22;31620710;28;20313;-31
2024/01/20 00:48:55;;;;;;;43.20;30.45;;;;;;;21.70;43.41;101467.53;31610361;28;20220;-40
2024/01/20 01:03:58;;;;;;;41.22;28.52;;;;;;;21.69;43.01;101473.53;31621994;28;20231;-34
2024/01/20 01:19:01;;;;;;;35.80;24.70;;;;;;;21.64;42.90;101502.88;31657877;28;20240;-34
2024/01/20 01:34:04;;;;;;;31.35;22.23;;;;;;;21.58;42.99;101503.31;31693003;28;20221;-36
2024/01/20 01:49:08;;;;;;;28.13;20.20;;;;;;;21.60;42.73;101518.00;31679818;28;20252;-31
2024/01/20 02:04:11;;;;;;;24.05;18.40;;;;;;;21.57;42.87;101505.31;31626198;28;20226;-34
2024/01/20 02:19:14;;;;;;;24.30;16.95;;;;;;;21.51;42.63;101515.16;31657591;28;20221;-31
2024/01/20 02:34:17;;;;;;;19.20;14.40;;;;;;;21.52;42.84;101516.81;31684626;28;20268;-44
2024/01/20 02:49:20;;;;;;;18.45;13.95;;;;;;;21.51;42.69;101531.31;31659587;28;20590;-43
2024/01/20 03:04:23;;;;;;;17.30;12.80;;;;;;;21.48;42.62;101537.63;31626590;28;20226;-43
2024/01/20 03:19:26;;;;;;;16.08;11.35;;;;;;;21.44;42.87;101539.41;31631506;28;20577;-43
2024/01/20 03:34:29;;;;;;;75.68;54.70;;;;;;;22.62;40.88;101539.22;31593457;28;20444;-39
2024/01/20 03:49:32;;;;;;;66.35;44.63;;;;;;;22.94;40.08;101545.59;31621019;28;20208;-39
2024/01/20 04:04:37;;;;;;;84.78;56.50;;;;;;;23.11;39.66;101540.69;31619671;28;20613;-43
2024/01/20 04:19:40;;;;;;;83.50;57.22;;;;;;;23.28;38.86;101544.66;31618838;28;20552;-41
2024/01/20 04:34:51;;;;;;;75.10;49.55;;;;;;;23.34;39.03;101574.56;31617419;28;20218;-40
2024/01/20 04:49:54;;;;;;;104.40;70.15;;;;;;;23.49;38.73;101591.91;31619733;28;20263;-40
2024/01/20 05:04:57;;;;;;;87.82;62.03;;;;;;;23.44;38.96;101600.63;31621487;28;20218;-39
2024/01/20 05:20:00;;;;;;;76.22;51.15;;;;;;;23.38;38.84;101621.84;31625244;28;20219;-40
2024/01/20 05:35:03;;;;;;;65.53;44.00;;;;;;;23.32;38.74;101626.03;31634706;28;20223;-39
2024/01/20 05:50:08;;;;;;;52.42;36.20;;;;;;;23.24;39.24;101628.91;31663459;28;20289;-39
2024/01/20 06:05:11;;;;;;;45.90;31.80;;;;;;;23.26;38.65;101629.38;31618587;28;20229;-39
2024/01/20 06:20:15;;;;;;;39.05;27.00;;;;;;;23.25;38.69;101651.25;31629059;28;20318;-39
2024/01/20 06:35:18;;;;;;;33.58;22.33;;;;;;;23.35;38.77;101676.50;31614095;28;20234;-40
2024/01/20 06:50:21;;;;;;;30.27;19.35;;;;;;;23.39;38.41;101670.97;31599700;28;20204;-41
2024/01/20 07:05:24;;;;;;;24.08;16.42;;;;;;;23.36;38.77;101678.19;31557994;28;20234;-43
2024/01/20 07:20:27;;;;;;;19.98;14.77;;;;;;;23.33;38.67;101690.22;31577774;28;20230;-40
2024/01/20 07:35:30;;;;;;;19.20;13.35;;;;;;;23.26;38.11;101700.38;31574964;28;20240;-40
2024/01/20 07:50:33;;;;;;;17.10;11.35;;;;;;;23.20;38.26;101702.59;31556579;28;20199;-39
2024/01/20 08:05:36;;;;;;;14.25;10.73;;;;;;;23.16;38.27;101712.94;31578762;28;20248;-41
2024/01/20 08:20:39;;;;;;;11.52;8.27;;;;;;;23.13;38.16;101747.66;31598696;28;20261;-40
2024/01/20 08:35:43;;;;;;;72.85;49.33;;;;;;;22.54;40.41;101764.22;31578640;28;20226;-37
2024/01/20 08:50:46;;;;;;;70.60;46.95;;;;;;;22.62;40.05;101766.22;31586180;28;20312;-37
2024/01/20 09:05:49;;;;;;;65.57;43.08;;;;;;;22.68;40.04;101764.09;31592453;28;20532;-37
2024/01/20 09:20:52;;;;;;;113.15;74.22;;;;;;;22.73;40.14;101761.91;31609919;28;20218;-38
2024/01/20 09:35:55;;;;;;;114.20;77.45;;;;;;;22.96;39.79;101781.72;31605218;28;20313;-38
2024/01/20 09:50:58;;;;;;;169.70;109.13;;;;;;;23.11;39.46;101789.75;31617945;28;20194;-38
2024/01/20 10:06:01;;;;;;;190.48;123.30;;;;;;;23.07;39.24;101788.78;31624548;28;20309;-37
2024/01/20 10:21:05;;;;;;;186.82;120.13;;;;;;;23.07;39.84;101811.47;31600986;28;20225;-38
2024/01/20 10:36:11;;;;;;;161.40;104.18;;;;;;;23.08;39.69;101801.81;31676438;28;20525;-37
2024/01/20 10:51:16;;;;;;;207.45;134.25;;;;;;;23.09;39.66;101800.63;31566663;28;20255;-38
2024/01/20 11:06:22;;;;;;;192.60;126.68;;;;;;;23.50;39.80;101778.28;31589252;28;20499;-37
2024/01/20 11:21:25;;;;;;;167.68;109.15;;;;;;;23.60;38.70;101774.31;31578409;28;20222;-38
2024/01/20 11:36:29;;;;;;;147.77;98.47;;;;;;;23.59;38.70;101761.25;31579440;28;20229;-37
2024/01/20 11:51:32;;;;;;;179.23;115.18;;;;;;;23.59;41.28;101766.09;31658956;28;20263;-37
2024/01/20 12:06:36;;;;;;;199.18;129.98;;;;;;;23.62;40.63;101754.91;31544382;28;20245;-37
2024/01/20 12:21:39;;;;;;;158.57;104.13;;;;;;;23.60;40.42;101750.72;31584438;28;20470;-38
2024/01/20 12:36:42;;;;;;;126.93;83.70;;;;;;;23.60;40.08;101742.19;31582149;28;20231;-37
2024/01/20 12:51:45;;;;;;;112.65;73.80;;;;;;;23.58;39.89;101734.00;31586739;28;20199;-37
2024/01/20 13:06:48;;;;;;;86.78;56.78;;;;;;;23.27;39.29;101724.78;31599084;28;20203;-37
2024/01/20 13:21:51;;;;;;;73.65;49.05;;;;;;;23.49;39.24;101728.31;31614733;28;20338;-37
2024/01/20 13:36:54;;;;;;;59.70;39.53;;;;;;;23.11;38.66;101728.13;31609984;28;20226;-37
2024/01/20 13:51:57;;;;;;;48.08;34.13;;;;;;;23.24;38.23;101720.59;31573292;28;20208;-36
2024/01/20 14:07:03;;;;;;;43.72;29.42;;;;;;;23.16;38.76;101725.13;31604431;28;20205;-38
2024/01/20 14:22:06;;;;;;;58.10;38.90;;;;;;;23.37;39.06;101730.16;31615299;28;20238;-38
2024/01/20 14:37:10;;;;;;;90.72;60.28;;;;;;;23.36;39.07;101737.84;31607943;28;20529;-38
2024/01/20 14:52:13;;;;;;;74.00;49.15;;;;;;;23.43;39.54;101741.00;31603175;28;20213;-38
2024/01/20 15:07:16;;;;;;;63.80;42.17;;;;;;;23.45;39.38;101726.47;31582595;28;20194;-38
2024/01/20 15:22:19;;;;;;;111.40;72.57;;;;;;;23.50;39.64;101712.94;31527667;28;20225;-37
2024/01/20 15:37:22;;;;;;;99.20;66.45;;;;;;;23.44;39.39;101719.94;31597177;28;20226;-37
2024/01/20 15:52:27;;;;;;;118.57;80.35;;;;;;;23.46;39.53;101722.47;31553151;28;20376;-37
2024/01/20 16:07:31;;;;;;;96.68;65.05;;;;;;;23.45;39.79;101696.03;31525431;28;20218;-37
2024/01/20 16:22:34;;;;;;;159.13;116.67;;;;;;;23.28;39.55;101692.38;31598712;28;20938;-37
2024/01/20 16:37:37;;;;;;;152.43;97.50;;;;;;;22.90;40.41;101692.19;31606634;28;20230;-37
2024/01/20 16:52:40;;;;;;;188.43;124.35;;;;;;;22.84;40.65;101693.53;31611382;28;20225;-40
2024/01/20 17:07:43;;;;;;;223.93;151.68;;;;;;;22.83;41.36;101691.88;31614852;28;20213;-39
2024/01/20 17:22:47;;;;;;;163.60;111.18;;;;;;;22.79;41.65;101683.16;31609544;28;20241;-39
2024/01/20 17:37:50;;;;;;;123.78;84.22;;;;;;;22.90;41.17;101684.50;31589312;28;20226;-39
2024/01/20 17:52:53;;;;;;;215.27;135.43;;;;;;;22.76;41.73;101681.81;31597871;28;20222;-39
2024/01/20 18:07:56;;;;;;;158.05;103.95;;;;;;;22.80;41.50;101687.69;31590411;28;20198;-38
2024/01/20 18:22:59;;;;;;;232.00;146.02;;;;;;;23.02;41.04;101678.19;31596469;28;20226;-38
2024/01/20 18:38:02;;;;;;;174.38;112.82;;;;;;;23.19;41.40;101674.50;31619222;28;20701;-39
2024/01/20 18:53:05;;;;;;;264.58;181.27;;;;;;;23.29;41.39;101682.69;31646942;28;20302;-39
2024/01/20 19:08:10;;;;;;;240.75;160.13;;;;;;;23.43;41.52;101666.28;31588147;28;20604;-39
2024/01/20 19:23:13;;;;;;;263.60;181.35;;;;;;;23.51;40.89;101654.09;31592559;28;20244;-39
2024/01/20 19:38:16;;;;;;;290.83;200.60;;;;;;;23.63;40.63;101637.19;31596974;28;20560;-38
2024/01/20 19:53:19;;;;;;;255.55;171.57;;;;;;;23.68;40.11;101645.53;31623950;28;20276;-39
2024/01/20 20:08:22;;;;;;;208.70;136.07;;;;;;;23.68;40.08;101644.69;31615930;28;20214;-39
2024/01/20 20:23:25;;;;;;;226.80;151.30;;;;;;;23.74;39.71;101623.47;31598585;28;20234;-39
2024/01/20 20:38:28;;;;;;;262.38;176.20;;;;;;;23.68;39.56;101605.75;31587656;28;20730;-39
2024/01/20 20:53:32;;;;;;;261.52;179.63;;;;;;;23.58;39.92;101605.28;31623212;28;20679;-38
2024/01/20 21:08:35;;;;;;;217.23;143.63;;;;;;;23.52;40.18;101579.88;31618378;28;20198;-39
